This is the latest recevied weather packets stored in our database for station/object W8BS. If no packets are shown the sender has not sent any weather packets the latest 10 day(s).
| Time | Temp. | Humidity | Pressure | Rain* | Wind** | Luminosity | Snow |
|---|---|---|---|---|---|---|---|
| 1777386364 | 16.67° C | 74% | 1014.7 hPa | 0 mm | - | 329 W/m² | - |
| 1777386061 | 16.67° C | 75% | 1014.7 hPa | 0 mm | - | 335 W/m² | - |
| 1777385757 | 16.11° C | 74% | 1014.6 hPa | 0 mm | - | 249 W/m² | - |
| 1777385455 | 16.11° C | 75% | 1014.6 hPa | 0 mm | - | 226 W/m² | - |
| 1777385150 | 16.11° C | 77% | 1014.7 hPa | 0 mm | - | 238 W/m² | - |
| 1777384847 | 16.11° C | 77% | 1015 hPa | 0 mm | - | 320 W/m² | - |
| 1777384544 | 15.56° C | 79% | 1014.8 hPa | 0 mm | - | 271 W/m² | - |
| 1777384239 | 15° C | 80% | 1014.7 hPa | 0 mm | - | 234 W/m² | - |
| 1777383935 | 15° C | 80% | 1014.8 hPa | 0 mm | - | 208 W/m² | - |
| 1777383631 | 15° C | 80% | 1014.7 hPa | 0 mm | - | 179 W/m² | - |
| 1777383328 | 15° C | 80% | 1014.8 hPa | 0 mm | - | 167 W/m² | - |
| 1777383024 | 14.44° C | 80% | 1014.7 hPa | 0 mm | - | 159 W/m² | - |
| 1777382721 | 14.44° C | 81% | 1014.7 hPa | 0 mm | - | 185 W/m² | - |
| 1777382416 | 13.89° C | 82% | 1014.7 hPa | 0 mm | - | 193 W/m² | - |
| 1777382113 | 13.89° C | 83% | 1014.7 hPa | 0 mm | - | 225 W/m² | - |
| 1777381809 | 13.33° C | 86% | 1014.8 hPa | 0 mm | - | 215 W/m² | - |
| 1777381503 | 13.33° C | 85% | 1014.7 hPa | 0 mm | - | 191 W/m² | - |
| 1777381199 | 12.78° C | 86% | 1014.7 hPa | 0 mm | - | 171 W/m² | - |
| 1777380896 | 12.78° C | 88% | 1014.8 hPa | 0 mm | - | 146 W/m² | - |
| 1777380594 | 12.22° C | 87% | 1014.4 hPa | 0 mm | - | 115 W/m² | - |
| 1777380289 | 12.22° C | 87% | 1014.1 hPa | 0 mm | - | 87 W/m² | - |
| 1777379985 | 12.22° C | 88% | 1014 hPa | 0 mm | - | 70 W/m² | - |
| 1777379682 | 11.67° C | 87% | 1014.4 hPa | 0 mm | - | 65 W/m² | - |
| 1777379377 | 11.67° C | 88% | 1014.2 hPa | 0 mm | - | 58 W/m² | - |
| 1777379073 | 11.67° C | 88% | 1014.2 hPa | 0 mm | - | 51 W/m² | - |
* Rain latest hour (hover to see other rain measurements)
** Current wind speed in m/s (hover to see current wind gust speed)